createdAt,value
2019-02-20T00:00:48.725Z,64.52
2019-02-20T00:03:19.025Z,64.36
2019-02-20T00:05:49.201Z,64.85
2019-02-20T00:08:19.591Z,64.87
2019-02-20T00:10:49.739Z,64.54
2019-02-20T00:13:19.965Z,64.83
2019-02-20T00:15:50.227Z,64.78
2019-02-20T00:18:20.468Z,64.53
2019-02-20T00:20:50.613Z,64.66
2019-02-20T00:23:22.296Z,64.86
2019-02-20T00:25:52.473Z,64.82
2019-02-20T00:28:22.568Z,64.78
2019-02-20T00:30:52.731Z,64.93
2019-02-20T00:33:22.849Z,64.69
2019-02-20T00:35:53.094Z,64.69
2019-02-20T00:38:23.281Z,64.56
2019-02-20T00:40:53.681Z,64.84
2019-02-20T00:43:23.865Z,64.62
2019-02-20T00:46:31.148Z,64.75
2019-02-20T00:49:09.140Z,64.83
2019-02-20T00:51:58.317Z,64.71
2019-02-20T00:54:28.473Z,64.88
2019-02-20T00:56:58.611Z,64.52
2019-02-20T00:59:28.831Z,64.77
2019-02-20T01:01:58.937Z,64.46
2019-02-20T01:04:29.153Z,64.81
2019-02-20T01:06:59.328Z,64.80
2019-02-20T01:09:29.474Z,64.75
2019-02-20T01:11:59.717Z,64.59
2019-02-20T01:14:29.877Z,64.36
2019-02-20T01:17:00.035Z,64.21
2019-02-20T01:19:30.466Z,64.13
2019-02-20T01:22:00.637Z,63.98
2019-02-20T01:24:30.746Z,64.16
2019-02-20T01:27:00.897Z,64.16
2019-02-20T01:29:31.015Z,63.83
2019-02-20T01:32:01.197Z,63.71
2019-02-20T01:34:32.935Z,63.83
2019-02-20T01:37:03.100Z,63.73
2019-02-20T01:39:33.265Z,63.63
2019-02-20T01:42:03.413Z,63.67
2019-02-20T01:44:33.526Z,63.64
2019-02-20T01:47:03.683Z,64.04
2019-02-20T01:49:33.803Z,64.12
2019-02-20T01:52:04.024Z,63.81
2019-02-20T01:54:34.192Z,63.55
2019-02-20T01:57:04.374Z,63.49
2019-02-20T01:59:34.494Z,63.22
2019-02-20T02:02:04.646Z,63.39
2019-02-20T02:04:35.055Z,63.19
2019-02-20T02:07:05.194Z,63.34
2019-02-20T02:09:35.513Z,63.26
2019-02-20T02:12:05.716Z,63.08
2019-02-20T02:14:35.906Z,63.26
2019-02-20T02:17:06.056Z,63.29
2019-02-20T02:19:36.248Z,63.36
2019-02-20T02:22:06.508Z,63.64
2019-02-20T02:24:36.727Z,63.21
2019-02-20T02:27:06.869Z,63.29
2019-02-20T02:29:37.086Z,63.48
2019-02-20T02:32:07.286Z,63.62
2019-02-20T02:34:37.510Z,63.38
2019-02-20T02:37:07.686Z,63.54
2019-02-20T02:39:37.852Z,63.75
2019-02-20T02:42:08.111Z,63.86
2019-02-20T02:44:38.361Z,63.79
2019-02-20T02:47:08.545Z,63.51
2019-02-20T02:49:38.792Z,63.48
2019-02-20T02:52:08.959Z,64.03
2019-02-20T02:54:39.200Z,63.96
2019-02-20T02:57:09.479Z,63.64
2019-02-20T02:59:39.660Z,63.67
2019-02-20T03:02:09.840Z,63.80
2019-02-20T03:04:39.984Z,64.33
2019-02-20T03:07:10.149Z,64.45
2019-02-20T03:09:40.262Z,64.66
2019-02-20T03:12:10.463Z,64.71
2019-02-20T03:14:40.586Z,64.90
2019-02-20T03:17:10.714Z,65.04
2019-02-20T03:19:40.842Z,64.90
2019-02-20T03:22:10.972Z,65.01
2019-02-20T03:24:41.110Z,64.93
2019-02-20T03:27:11.281Z,65.09
2019-02-20T03:29:41.392Z,65.44
2019-02-20T03:32:11.538Z,65.72
2019-02-20T03:34:41.681Z,65.49
2019-02-20T03:37:11.808Z,65.79
2019-02-20T03:39:41.981Z,66.10
2019-02-20T03:42:12.142Z,65.93
2019-02-20T03:44:42.269Z,66.00
2019-02-20T03:47:12.405Z,66.32
2019-02-20T03:49:49.849Z,66.72
2019-02-20T03:52:21.630Z,66.59
2019-02-20T03:54:51.846Z,66.10
2019-02-20T03:57:22.123Z,66.08
2019-02-20T03:59:52.386Z,66.34
2019-02-20T04:02:22.591Z,66.35
2019-02-20T04:04:57.310Z,66.13
2019-02-20T04:07:36.230Z,65.72
2019-02-20T04:10:08.913Z,66.11
2019-02-20T04:12:38.251Z,66.27
2019-02-20T04:15:15.223Z,66.16
2019-02-20T04:17:49.954Z,66.09
2019-02-20T04:20:20.099Z,65.74
2019-02-20T04:22:52.675Z,66.16
2019-02-20T04:25:25.886Z,66.05
2019-02-20T04:27:56.074Z,66.13
2019-02-20T04:30:26.250Z,66.05
2019-02-20T04:32:58.726Z,66.02
2019-02-20T04:35:29.561Z,65.77
2019-02-20T04:38:02.841Z,66.02
2019-02-20T04:40:36.132Z,66.04
2019-02-20T04:43:08.025Z,65.97
2019-02-20T04:45:39.704Z,66.14
2019-02-20T04:48:09.967Z,66.58
2019-02-20T04:50:40.979Z,66.06
2019-02-20T04:53:11.153Z,66.55
2019-02-20T04:55:43.641Z,65.94
2019-02-20T04:58:23.816Z,65.55
2019-02-20T05:00:56.987Z,65.82
2019-02-20T05:03:28.950Z,65.71
2019-02-20T05:05:59.103Z,65.42
2019-02-20T05:08:30.951Z,65.05
2019-02-20T05:11:01.157Z,64.81
2019-02-20T05:13:31.380Z,65.18
2019-02-20T05:16:07.954Z,65.42
2019-02-20T05:18:39.753Z,65.33
2019-02-20T05:21:10.617Z,65.13
2019-02-20T05:23:42.770Z,65.55
2019-02-20T05:26:12.882Z,65.36
2019-02-20T05:28:43.020Z,65.38
2019-02-20T05:31:13.156Z,65.27
2019-02-20T05:33:50.530Z,65.39
2019-02-20T05:36:20.874Z,65.13
2019-02-20T05:38:51.141Z,65.18
2019-02-20T05:41:21.236Z,65.36
2019-02-20T05:43:51.355Z,65.02
2019-02-20T05:46:24.516Z,65.05
2019-02-20T05:48:54.764Z,65.16
2019-02-20T05:51:24.940Z,64.79
2019-02-20T05:53:56.834Z,65.11
2019-02-20T05:56:26.943Z,64.92
2019-02-20T05:58:57.030Z,64.65
2019-02-20T06:01:27.180Z,64.95
2019-02-20T06:03:57.317Z,64.61
2019-02-20T06:06:27.456Z,64.96
2019-02-20T06:08:57.577Z,64.47
2019-02-20T06:11:27.749Z,64.63
2019-02-20T06:13:59.519Z,64.52
2019-02-20T06:16:30.680Z,64.78
2019-02-20T06:19:00.906Z,65.13
2019-02-20T06:21:31.072Z,64.79
2019-02-20T06:24:01.199Z,64.79
2019-02-20T06:26:31.297Z,64.96
2019-02-20T06:29:01.495Z,65.01
2019-02-20T06:31:31.828Z,65.04
2019-02-20T06:34:01.968Z,64.92
2019-02-20T06:36:32.415Z,64.56
2019-02-20T06:39:04.235Z,64.96
2019-02-20T06:41:39.236Z,64.56
2019-02-20T06:44:09.461Z,64.53
2019-02-20T06:46:39.634Z,64.65
2019-02-20T06:49:10.043Z,64.65
2019-02-20T06:51:40.176Z,64.44
2019-02-20T06:54:10.375Z,64.48
2019-02-20T06:56:40.685Z,64.27
2019-02-20T06:59:10.947Z,64.37
2019-02-20T07:01:41.112Z,64.36
2019-02-20T07:04:11.342Z,63.86
2019-02-20T07:07:11.975Z,63.74
2019-02-20T07:10:11.810Z,64.23
2019-02-20T07:12:55.391Z,63.89
2019-02-20T07:16:15.689Z,64.09
2019-02-20T07:19:03.933Z,63.89
2019-02-20T07:22:17.683Z,63.61
2019-02-20T07:25:23.739Z,64.29
2019-02-20T07:28:49.945Z,63.80
2019-02-20T07:31:20.135Z,63.74
2019-02-20T07:33:50.389Z,63.26
2019-02-20T07:36:20.707Z,63.41
2019-02-20T07:38:53.699Z,62.84
2019-02-20T07:41:23.937Z,62.69
2019-02-20T07:43:55.062Z,62.36
2019-02-20T07:46:25.229Z,62.62
2019-02-20T07:48:55.423Z,62.29
2019-02-20T07:51:25.600Z,62.33
2019-02-20T07:53:55.760Z,61.84
2019-02-20T07:56:25.934Z,61.53
2019-02-20T07:58:56.091Z,61.63
2019-02-20T08:01:26.292Z,61.42
2019-02-20T08:03:56.498Z,61.04
2019-02-20T08:06:26.627Z,62.05
2019-02-20T08:08:56.807Z,61.43
2019-02-20T08:11:26.943Z,61.19
2019-02-20T08:13:57.136Z,61.16
2019-02-20T08:16:27.331Z,61.26
2019-02-20T08:18:57.603Z,60.98
2019-02-20T08:21:27.805Z,61.01
2019-02-20T08:23:58.025Z,60.10
2019-02-20T08:26:28.195Z,60.17
2019-02-20T08:28:58.439Z,60.51
2019-02-20T08:31:28.639Z,60.75
2019-02-20T08:33:59.243Z,60.30
2019-02-20T08:36:29.908Z,60.08
2019-02-20T08:39:00.048Z,60.75
2019-02-20T08:41:30.213Z,60.34
2019-02-20T08:44:00.373Z,59.94
2019-02-20T08:46:30.631Z,59.83
2019-02-20T08:49:00.839Z,59.83
2019-02-20T08:51:31.061Z,59.53
2019-02-20T08:54:01.337Z,59.61
2019-02-20T08:56:31.549Z,59.57
2019-02-20T08:59:01.748Z,59.52
2019-02-20T09:01:31.931Z,58.95
2019-02-20T09:04:02.190Z,58.68
2019-02-20T09:06:32.413Z,58.37
2019-02-20T09:09:02.597Z,58.22
2019-02-20T09:11:34.560Z,58.26
2019-02-20T09:14:04.714Z,58.74
2019-02-20T09:16:34.885Z,57.51
2019-02-20T09:19:05.085Z,57.69
2019-02-20T09:21:35.308Z,59.39
2019-02-20T09:24:05.482Z,58.19
2019-02-20T09:26:35.838Z,58.13
2019-02-20T09:29:09.066Z,57.77
2019-02-20T09:31:39.309Z,58.15
2019-02-20T09:34:09.512Z,57.96
2019-02-20T09:36:39.710Z,57.88
2019-02-20T09:39:35.659Z,58.30
2019-02-20T09:42:08.107Z,58.00
2019-02-20T09:44:50.004Z,58.65
2019-02-20T09:47:20.770Z,58.27
2019-02-20T09:49:50.999Z,58.84
2019-02-20T09:52:21.106Z,58.22
2019-02-20T09:54:51.273Z,57.67
2019-02-20T09:57:21.402Z,57.78
2019-02-20T09:59:51.670Z,56.66
2019-02-20T10:02:21.806Z,55.70
2019-02-20T10:04:51.975Z,56.37
2019-02-20T10:07:22.104Z,55.71
2019-02-20T10:09:52.332Z,55.78
2019-02-20T10:12:22.588Z,55.86
2019-02-20T10:14:52.744Z,55.72
2019-02-20T10:17:23.846Z,55.57
2019-02-20T10:19:53.974Z,55.15
2019-02-20T10:22:24.106Z,55.06
2019-02-20T10:24:54.274Z,54.87
2019-02-20T10:27:24.500Z,54.79
2019-02-20T10:29:54.638Z,54.78
2019-02-20T10:32:24.746Z,56.13
2019-02-20T10:34:54.927Z,55.71
2019-02-20T10:37:25.076Z,55.57
2019-02-20T10:39:55.242Z,55.90
2019-02-20T10:42:25.499Z,56.71
2019-02-20T10:44:55.684Z,56.84
2019-02-20T10:47:25.789Z,55.93
2019-02-20T10:49:55.940Z,55.98
2019-02-20T10:52:26.075Z,55.31
2019-02-20T10:54:57.968Z,55.64
2019-02-20T10:57:28.182Z,55.94
2019-02-20T10:59:58.298Z,55.25
2019-02-20T11:02:28.548Z,55.38
2019-02-20T11:04:58.684Z,55.52
2019-02-20T11:07:29.920Z,55.40
2019-02-20T11:10:00.146Z,55.20
2019-02-20T11:12:30.592Z,55.09
2019-02-20T11:15:00.724Z,54.83
2019-02-20T11:17:32.527Z,55.06
2019-02-20T11:20:02.651Z,54.70
2019-02-20T11:22:34.229Z,54.60
2019-02-20T11:25:04.632Z,54.03
2019-02-20T11:27:34.867Z,54.73
2019-02-20T11:30:07.349Z,54.50
2019-02-20T11:32:37.760Z,54.18
2019-02-20T11:35:08.602Z,53.17
2019-02-20T11:37:38.804Z,52.73
2019-02-20T11:40:09.455Z,52.49
2019-02-20T11:42:39.595Z,51.30
2019-02-20T11:45:10.105Z,51.25
2019-02-20T11:47:40.293Z,51.24
2019-02-20T11:50:10.758Z,50.62
2019-02-20T11:52:41.185Z,50.82
2019-02-20T11:55:11.483Z,51.19
2019-02-20T11:57:41.813Z,50.86
2019-02-20T12:00:12.828Z,51.01
2019-02-20T12:02:43.025Z,49.97
2019-02-20T12:05:14.495Z,49.01
2019-02-20T12:07:44.625Z,48.58
2019-02-20T12:10:15.324Z,48.83
2019-02-20T12:12:45.482Z,48.72
2019-02-20T12:15:15.643Z,48.63
2019-02-20T12:17:45.835Z,48.36
2019-02-20T12:20:16.057Z,48.46
2019-02-20T12:22:46.239Z,48.17
2019-02-20T12:25:16.375Z,48.36
2019-02-20T12:27:46.503Z,47.56
2019-02-20T12:30:16.758Z,47.20
2019-02-20T12:32:46.883Z,47.13
2019-02-20T12:35:17.077Z,47.03
2019-02-20T12:37:47.201Z,47.85
2019-02-20T12:40:17.415Z,47.64
2019-02-20T12:42:47.546Z,47.20
2019-02-20T12:45:17.719Z,46.98
2019-02-20T12:47:47.823Z,47.20
2019-02-20T12:50:17.967Z,46.73
2019-02-20T12:52:48.092Z,46.74
2019-02-20T12:55:18.366Z,45.81
2019-02-20T12:57:48.567Z,45.65
2019-02-20T13:00:20.585Z,45.58
2019-02-20T13:02:50.845Z,44.84
2019-02-20T13:05:21.312Z,44.42
2019-02-20T13:07:51.791Z,43.90
2019-02-20T13:10:22.065Z,44.02
2019-02-20T13:12:52.181Z,44.31
2019-02-20T13:15:22.348Z,44.86
2019-02-20T13:17:52.694Z,44.63
2019-02-20T13:20:23.049Z,44.62
2019-02-20T13:22:53.176Z,44.53
2019-02-20T13:25:23.320Z,44.65
2019-02-20T13:27:53.552Z,44.23
2019-02-20T13:30:23.698Z,43.93
2019-02-20T13:32:53.807Z,44.25
2019-02-20T13:35:23.980Z,44.10
2019-02-20T13:37:54.086Z,44.42
2019-02-20T13:40:24.377Z,44.68
2019-02-20T13:42:54.525Z,44.21
2019-02-20T13:45:24.864Z,44.32
2019-02-20T13:47:55.208Z,43.60
2019-02-20T13:50:25.708Z,43.89
2019-02-20T13:52:55.934Z,43.71
2019-02-20T13:55:34.217Z,43.64
2019-02-20T13:57:58.077Z,44.05
2019-02-20T14:00:29.425Z,44.02
2019-02-20T14:02:59.580Z,44.23
2019-02-20T14:05:29.706Z,45.18
2019-02-20T14:07:59.925Z,45.60
2019-02-20T14:10:30.028Z,45.78
2019-02-20T14:13:00.251Z,45.67
2019-02-20T14:15:30.738Z,45.49
2019-02-20T14:18:00.896Z,45.31
2019-02-20T14:20:31.228Z,44.59
2019-02-20T14:23:01.378Z,44.91
2019-02-20T14:25:31.626Z,44.34
2019-02-20T14:28:03.138Z,44.79
2019-02-20T14:30:33.341Z,44.84
2019-02-20T14:33:04.582Z,45.18
2019-02-20T14:35:34.752Z,44.99
2019-02-20T14:38:04.915Z,44.83
2019-02-20T14:40:35.069Z,44.60
2019-02-20T14:43:05.347Z,44.63
2019-02-20T14:45:35.476Z,44.51
2019-02-20T14:48:05.947Z,44.54
2019-02-20T14:50:36.331Z,44.64
2019-02-20T14:53:06.560Z,44.89
2019-02-20T14:55:36.752Z,45.21
2019-02-20T14:58:06.923Z,45.15
2019-02-20T15:00:37.222Z,45.46
2019-02-20T15:03:07.401Z,45.97
2019-02-20T15:05:37.984Z,46.02
2019-02-20T15:08:08.255Z,46.20
2019-02-20T15:10:38.529Z,46.62
2019-02-20T15:13:08.858Z,46.95
2019-02-20T15:15:39.415Z,47.23
2019-02-20T15:18:09.743Z,47.86
2019-02-20T15:20:39.968Z,48.01
2019-02-20T15:23:10.167Z,47.99
2019-02-20T15:25:40.328Z,47.95
2019-02-20T15:28:10.479Z,48.45
2019-02-20T15:30:41.042Z,48.41
2019-02-20T15:33:11.589Z,48.28
2019-02-20T15:35:42.147Z,48.22
2019-02-20T15:38:12.510Z,48.26
2019-02-20T15:40:43.379Z,48.82
2019-02-20T15:43:14.504Z,49.13
2019-02-20T15:45:45.493Z,49.28
2019-02-20T15:48:23.038Z,49.49
2019-02-20T15:50:47.700Z,49.47
2019-02-20T15:53:17.951Z,49.46
2019-02-20T15:55:48.578Z,49.75
2019-02-20T15:58:19.218Z,49.78
2019-02-20T16:00:52.132Z,50.01
2019-02-20T16:03:22.274Z,50.27
2019-02-20T16:05:52.708Z,50.41
2019-02-20T16:08:22.876Z,50.53
2019-02-20T16:10:53.141Z,50.59
2019-02-20T16:13:23.482Z,50.86
2019-02-20T16:15:54.595Z,51.08
2019-02-20T16:18:26.877Z,50.93
2019-02-20T16:20:57.081Z,51.13
2019-02-20T16:23:27.286Z,51.35
2019-02-20T16:25:57.507Z,51.19
2019-02-20T16:28:33.580Z,51.46
2019-02-20T16:31:01.187Z,51.70
2019-02-20T16:33:34.481Z,52.00
2019-02-20T16:36:05.568Z,52.35
2019-02-20T16:38:36.005Z,52.10
2019-02-20T16:41:06.858Z,52.60
2019-02-20T16:43:37.015Z,52.64
2019-02-20T16:46:07.147Z,53.42
2019-02-20T16:48:37.345Z,53.26
2019-02-20T16:51:07.581Z,54.18
2019-02-20T16:53:37.966Z,53.59
2019-02-20T16:56:08.210Z,53.84
2019-02-20T16:58:38.918Z,53.96
2019-02-20T17:01:09.443Z,54.00
2019-02-20T17:03:39.682Z,54.21
2019-02-20T17:06:10.215Z,54.25
2019-02-20T17:08:41.444Z,54.32
2019-02-20T17:11:11.611Z,54.21
2019-02-20T17:13:41.876Z,54.22
2019-02-20T17:16:12.681Z,54.48
2019-02-20T17:18:42.942Z,54.31
2019-02-20T17:21:13.211Z,54.30
2019-02-20T17:23:44.844Z,54.15
2019-02-20T17:26:15.779Z,54.45
2019-02-20T17:28:46.108Z,54.45
2019-02-20T17:31:16.351Z,54.62
2019-02-20T17:33:46.936Z,54.74
2019-02-20T17:36:17.509Z,54.72
2019-02-20T17:38:48.022Z,55.03
2019-02-20T17:41:18.361Z,55.05
2019-02-20T17:43:48.773Z,54.80
2019-02-20T17:46:20.998Z,54.97
2019-02-20T17:48:51.460Z,54.99
2019-02-20T17:51:21.968Z,55.37
2019-02-20T17:53:52.320Z,54.93
2019-02-20T17:56:23.208Z,55.11
2019-02-20T17:58:53.935Z,55.31
2019-02-20T18:01:26.180Z,55.44
2019-02-20T18:03:56.784Z,55.45
2019-02-20T18:06:27.308Z,55.44
2019-02-20T18:08:58.053Z,55.52
2019-02-20T18:11:28.933Z,55.65
2019-02-20T18:13:59.384Z,55.62
2019-02-20T18:16:29.755Z,55.59
2019-02-20T18:19:01.028Z,55.75
2019-02-20T18:21:31.722Z,55.82
2019-02-20T18:24:03.162Z,55.97
2019-02-20T18:26:36.383Z,55.87
2019-02-20T18:29:06.553Z,55.80
2019-02-20T18:31:38.275Z,55.75
2019-02-20T18:34:08.674Z,55.74
2019-02-20T18:36:39.057Z,55.64
2019-02-20T18:39:09.617Z,55.71
2019-02-20T18:41:40.977Z,55.89
2019-02-20T18:44:11.174Z,55.98
2019-02-20T18:46:42.554Z,55.74
2019-02-20T18:49:12.858Z,55.95
2019-02-20T18:51:43.116Z,55.77
2019-02-20T18:54:13.281Z,56.25
2019-02-20T18:56:44.576Z,56.00
2019-02-20T18:59:15.581Z,56.11
2019-02-20T19:01:46.323Z,56.02
2019-02-20T19:04:16.554Z,56.56
2019-02-20T19:06:46.965Z,56.70
2019-02-20T19:09:24.029Z,56.62
2019-02-20T19:12:34.286Z,57.00
2019-02-20T19:15:31.958Z,56.95
2019-02-20T19:18:41.836Z,56.49
2019-02-20T19:21:50.071Z,56.59
2019-02-20T19:25:09.438Z,56.26
2019-02-20T19:28:02.984Z,56.84
2019-02-20T19:31:42.022Z,56.71
2019-02-20T19:34:21.427Z,56.55
2019-02-20T19:37:28.203Z,56.50
2019-02-20T19:40:31.200Z,56.27
2019-02-20T19:43:30.555Z,56.07
2019-02-20T19:46:33.349Z,56.01
2019-02-20T19:50:02.531Z,56.01
2019-02-20T19:53:07.033Z,55.89
2019-02-20T19:55:50.404Z,56.11
2019-02-20T19:59:06.740Z,55.86
2019-02-20T20:02:28.710Z,55.71
2019-02-20T20:05:36.436Z,55.79
2019-02-20T20:08:41.766Z,55.82
2019-02-20T20:11:56.228Z,55.58
2019-02-20T20:15:04.603Z,56.07
2019-02-20T20:18:14.722Z,55.67
2019-02-20T20:21:06.968Z,56.36
2019-02-20T20:24:15.767Z,56.18
2019-02-20T20:27:48.753Z,55.97
2019-02-20T20:30:48.060Z,56.10
2019-02-20T20:34:08.172Z,56.25
2019-02-20T20:37:18.146Z,56.45
2019-02-20T20:40:34.192Z,56.41
2019-02-20T20:43:37.395Z,56.55
2019-02-20T20:47:04.647Z,56.91
2019-02-20T20:49:56.221Z,56.80
2019-02-20T20:53:06.042Z,56.94
2019-02-20T20:56:20.735Z,57.03
2019-02-20T20:59:23.754Z,57.21
2019-02-20T21:02:30.112Z,57.24
2019-02-20T21:05:43.373Z,56.96
2019-02-20T21:08:20.867Z,57.33
2019-02-20T21:11:14.665Z,57.22
2019-02-20T21:14:41.465Z,57.29
2019-02-20T21:18:01.415Z,57.28
2019-02-20T21:21:18.643Z,57.49
2019-02-20T21:24:26.666Z,57.40
2019-02-20T21:27:28.424Z,57.49
2019-02-20T21:30:51.365Z,57.93
2019-02-20T21:33:48.196Z,57.68
2019-02-20T21:36:42.091Z,57.58
2019-02-20T21:39:47.197Z,57.92
2019-02-20T21:43:04.014Z,57.80
2019-02-20T21:46:12.209Z,57.67
2019-02-20T21:49:26.840Z,57.64
2019-02-20T21:52:21.187Z,57.93
2019-02-20T21:55:12.189Z,59.14
2019-02-20T21:58:14.618Z,58.44
2019-02-20T22:01:13.794Z,58.72
2019-02-20T22:03:57.366Z,58.69
2019-02-20T22:07:30.050Z,59.03
2019-02-20T22:10:27.520Z,59.21
2019-02-20T22:13:45.458Z,59.20
2019-02-20T22:16:56.980Z,59.29
2019-02-20T22:20:29.220Z,59.45
2019-02-20T22:23:23.209Z,59.79
2019-02-20T22:26:22.552Z,59.92
2019-02-20T22:29:49.446Z,59.94
2019-02-20T22:32:32.329Z,60.12
2019-02-20T22:35:27.412Z,60.37
2019-02-20T22:38:30.155Z,60.09
2019-02-20T22:41:20.446Z,59.60
2019-02-20T22:44:42.708Z,59.49
2019-02-20T22:47:48.144Z,59.27
2019-02-20T22:50:59.121Z,59.18
2019-02-20T22:54:19.305Z,59.30
2019-02-20T22:57:29.320Z,59.25
2019-02-20T23:00:50.041Z,59.68
2019-02-20T23:03:36.842Z,59.71
2019-02-20T23:06:21.844Z,59.31
2019-02-20T23:09:44.790Z,59.77
2019-02-20T23:12:45.458Z,59.59
2019-02-20T23:15:15.858Z,59.38
2019-02-20T23:17:45.982Z,59.42
2019-02-20T23:20:16.189Z,59.12
2019-02-20T23:22:46.473Z,59.26
2019-02-20T23:25:16.736Z,59.59
2019-02-20T23:27:46.881Z,59.21
2019-02-20T23:30:17.058Z,59.24
2019-02-20T23:32:47.251Z,59.04
2019-02-20T23:35:17.398Z,59.44
2019-02-20T23:37:47.635Z,59.17
2019-02-20T23:40:17.807Z,58.73
2019-02-20T23:42:49.239Z,58.89
2019-02-20T23:45:19.488Z,59.10
2019-02-20T23:47:49.784Z,58.88
2019-02-20T23:50:19.970Z,59.25
2019-02-20T23:52:50.289Z,58.89
2019-02-20T23:55:20.411Z,59.10
2019-02-20T23:57:50.647Z,58.90
